sensor_id;sensor_type;location;lat;lon;timestamp;temperature;humidity
42905;DHT22;28550;51.228;4.528;2023-03-04T00:00:40;6.70;1.00
42905;DHT22;28550;51.228;4.528;2023-03-04T00:03:09;6.80;1.00
42905;DHT22;28550;51.228;4.528;2023-03-04T00:05:49;6.90;99.90
42905;DHT22;28550;51.228;4.528;2023-03-04T00:08:16;6.90;99.90
42905;DHT22;28550;51.228;4.528;2023-03-04T00:10:42;6.90;99.90
42905;DHT22;28550;51.228;4.528;2023-03-04T00:13:14;6.80;1.00
42905;DHT22;28550;51.228;4.528;2023-03-04T00:15:41;6.70;1.00
42905;DHT22;28550;51.228;4.528;2023-03-04T00:18:08;6.80;99.90
42905;DHT22;28550;51.228;4.528;2023-03-04T00:20:37;7.00;99.90
42905;DHT22;28550;51.228;4.528;2023-03-04T00:23:03;7.00;1.40
42905;DHT22;28550;51.228;4.528;2023-03-04T00:25:35;7.00;99.90
42905;DHT22;28550;51.228;4.528;2023-03-04T00:28:01;6.90;99.90
42905;DHT22;28550;51.228;4.528;2023-03-04T00:30:28;6.90;1.00
42905;DHT22;28550;51.228;4.528;2023-03-04T00:33:01;6.80;1.00
42905;DHT22;28550;51.228;4.528;2023-03-04T00:35:30;6.80;53.20
42905;DHT22;28550;51.228;4.528;2023-03-04T00:37:57;6.80;99.90
42905;DHT22;28550;51.228;4.528;2023-03-04T00:46:13;7.00;1.00
42905;DHT22;28550;51.228;4.528;2023-03-04T00:48:49;6.90;13.70
42905;DHT22;28550;51.228;4.528;2023-03-04T00:51:15;6.90;65.30
42905;DHT22;28550;51.228;4.528;2023-03-04T00:53:48;6.90;1.00
42905;DHT22;28550;51.228;4.528;2023-03-04T00:56:16;6.90;99.90
42905;DHT22;28550;51.228;4.528;2023-03-04T00:58:44;6.90;99.90
42905;DHT22;28550;51.228;4.528;2023-03-04T01:03:41;6.90;99.90
42905;DHT22;28550;51.228;4.528;2023-03-04T01:06:08;6.90;99.90
42905;DHT22;28550;51.228;4.528;2023-03-04T01:16:58;6.70;99.90
42905;DHT22;28550;51.228;4.528;2023-03-04T01:21:57;6.70;99.90
42905;DHT22;28550;51.228;4.528;2023-03-04T01:24:23;6.80;99.90
42905;DHT22;28550;51.228;4.528;2023-03-04T01:26:51;6.90;92.20
42905;DHT22;28550;51.228;4.528;2023-03-04T01:29:20;7.00;1.00
42905;DHT22;28550;51.228;4.528;2023-03-04T01:31:47;7.00;1.00
42905;DHT22;28550;51.228;4.528;2023-03-04T01:34:22;7.00;1.00
42905;DHT22;28550;51.228;4.528;2023-03-04T01:36:48;7.00;58.60
42905;DHT22;28550;51.228;4.528;2023-03-04T01:39:13;7.10;1.00
42905;DHT22;28550;51.228;4.528;2023-03-04T01:41:39;7.00;1.00
42905;DHT22;28550;51.228;4.528;2023-03-04T01:44:07;6.90;25.90
42905;DHT22;28550;51.228;4.528;2023-03-04T01:46:34;6.90;99.90
42905;DHT22;28550;51.228;4.528;2023-03-04T01:49:00;7.00;1.00
42905;DHT22;28550;51.228;4.528;2023-03-04T01:51:26;6.90;99.90
42905;DHT22;28550;51.228;4.528;2023-03-04T01:53:52;6.80;99.90
42905;DHT22;28550;51.228;4.528;2023-03-04T02:01:36;6.90;99.90
42905;DHT22;28550;51.228;4.528;2023-03-04T02:04:03;6.90;99.90
42905;DHT22;28550;51.228;4.528;2023-03-04T02:06:30;6.90;99.90
42905;DHT22;28550;51.228;4.528;2023-03-04T02:08:56;6.90;99.90
42905;DHT22;28550;51.228;4.528;2023-03-04T02:11:21;7.00;99.90
42905;DHT22;28550;51.228;4.528;2023-03-04T02:13:50;6.90;99.90
42905;DHT22;28550;51.228;4.528;2023-03-04T02:16:17;6.80;1.00
42905;DHT22;28550;51.228;4.528;2023-03-04T02:18:46;6.70;99.90
42905;DHT22;28550;51.228;4.528;2023-03-04T02:21:25;6.70;99.90
42905;DHT22;28550;51.228;4.528;2023-03-04T02:24:13;6.70;99.90
42905;DHT22;28550;51.228;4.528;2023-03-04T02:26:40;6.60;1.00
42905;DHT22;28550;51.228;4.528;2023-03-04T02:29:08;6.50;1.00
42905;DHT22;28550;51.228;4.528;2023-03-04T02:31:39;6.50;1.00
42905;DHT22;28550;51.228;4.528;2023-03-04T02:34:06;6.50;1.00
42905;DHT22;28550;51.228;4.528;2023-03-04T02:36:35;6.40;18.90
42905;DHT22;28550;51.228;4.528;2023-03-04T02:39:03;6.40;99.90
42905;DHT22;28550;51.228;4.528;2023-03-04T02:41:29;6.60;1.00
42905;DHT22;28550;51.228;4.528;2023-03-04T02:43:55;6.60;1.00
42905;DHT22;28550;51.228;4.528;2023-03-04T02:46:21;6.50;1.00
42905;DHT22;28550;51.228;4.528;2023-03-04T02:48:46;6.50;85.80
42905;DHT22;28550;51.228;4.528;2023-03-04T02:51:12;6.50;99.90
42905;DHT22;28550;51.228;4.528;2023-03-04T02:53:39;6.50;99.90
42905;DHT22;28550;51.228;4.528;2023-03-04T02:56:05;6.60;99.90
42905;DHT22;28550;51.228;4.528;2023-03-04T02:58:31;6.60;1.00
42905;DHT22;28550;51.228;4.528;2023-03-04T03:00:58;6.60;1.00
42905;DHT22;28550;51.228;4.528;2023-03-04T03:03:23;6.60;1.00
42905;DHT22;28550;51.228;4.528;2023-03-04T03:05:49;6.50;7.90
42905;DHT22;28550;51.228;4.528;2023-03-04T03:08:15;6.50;93.50
42905;DHT22;28550;51.228;4.528;2023-03-04T03:10:41;6.50;99.90
42905;DHT22;28550;51.228;4.528;2023-03-04T03:13:07;6.50;99.90
42905;DHT22;28550;51.228;4.528;2023-03-04T03:15:34;6.50;99.90
42905;DHT22;28550;51.228;4.528;2023-03-04T03:18:00;6.50;99.90
42905;DHT22;28550;51.228;4.528;2023-03-04T03:20:25;6.50;99.90
42905;DHT22;28550;51.228;4.528;2023-03-04T03:22:57;6.60;1.00
42905;DHT22;28550;51.228;4.528;2023-03-04T03:28:16;6.60;34.90
42905;DHT22;28550;51.228;4.528;2023-03-04T03:30:45;6.60;28.50
42905;DHT22;28550;51.228;4.528;2023-03-04T03:33:11;6.60;99.90
42905;DHT22;28550;51.228;4.528;2023-03-04T03:35:39;6.60;99.90
42905;DHT22;28550;51.228;4.528;2023-03-04T03:38:05;6.70;99.90
42905;DHT22;28550;51.228;4.528;2023-03-04T03:40:32;6.70;80.00
42905;DHT22;28550;51.228;4.528;2023-03-04T03:42:58;6.70;99.90
42905;DHT22;28550;51.228;4.528;2023-03-04T03:45:23;6.70;99.90
42905;DHT22;28550;51.228;4.528;2023-03-04T03:47:51;6.70;99.90
42905;DHT22;28550;51.228;4.528;2023-03-04T03:50:16;6.80;91.90
42905;DHT22;28550;51.228;4.528;2023-03-04T03:52:43;6.70;1.00
42905;DHT22;28550;51.228;4.528;2023-03-04T03:55:10;6.70;1.00
42905;DHT22;28550;51.228;4.528;2023-03-04T03:57:37;6.70;29.50
42905;DHT22;28550;51.228;4.528;2023-03-04T04:00:06;6.70;15.30
42905;DHT22;28550;51.228;4.528;2023-03-04T04:02:31;6.70;99.90
42905;DHT22;28550;51.228;4.528;2023-03-04T04:04:57;6.70;99.90
42905;DHT22;28550;51.228;4.528;2023-03-04T04:07:23;6.60;99.90
42905;DHT22;28550;51.228;4.528;2023-03-04T04:09:51;6.60;99.90
42905;DHT22;28550;51.228;4.528;2023-03-04T04:12:18;6.60;99.90
42905;DHT22;28550;51.228;4.528;2023-03-04T04:14:45;6.60;99.90
42905;DHT22;28550;51.228;4.528;2023-03-04T04:17:11;6.50;99.90
42905;DHT22;28550;51.228;4.528;2023-03-04T04:19:38;6.50;99.90
42905;DHT22;28550;51.228;4.528;2023-03-04T04:22:12;6.60;99.90
42905;DHT22;28550;51.228;4.528;2023-03-04T04:24:38;6.60;99.90
42905;DHT22;28550;51.228;4.528;2023-03-04T04:27:07;6.40;99.90
42905;DHT22;28550;51.228;4.528;2023-03-04T04:29:34;6.40;99.90
42905;DHT22;28550;51.228;4.528;2023-03-04T04:32:01;6.40;99.90
42905;DHT22;28550;51.228;4.528;2023-03-04T04:34:28;6.50;99.90
42905;DHT22;28550;51.228;4.528;2023-03-04T04:37:17;6.60;99.90
42905;DHT22;28550;51.228;4.528;2023-03-04T04:39:50;6.70;99.90
42905;DHT22;28550;51.228;4.528;2023-03-04T04:42:16;6.70;99.90
42905;DHT22;28550;51.228;4.528;2023-03-04T04:44:45;6.80;99.90
42905;DHT22;28550;51.228;4.528;2023-03-04T04:49:39;6.90;99.90
42905;DHT22;28550;51.228;4.528;2023-03-04T04:54:36;6.70;99.90
42905;DHT22;28550;51.228;4.528;2023-03-04T05:00:05;6.60;99.90
42905;DHT22;28550;51.228;4.528;2023-03-04T05:02:31;6.50;99.90
42905;DHT22;28550;51.228;4.528;2023-03-04T05:05:04;6.70;99.90
42905;DHT22;28550;51.228;4.528;2023-03-04T05:07:29;6.80;99.90
42905;DHT22;28550;51.228;4.528;2023-03-04T05:09:55;6.60;99.90
42905;DHT22;28550;51.228;4.528;2023-03-04T05:14:54;6.60;99.90
42905;DHT22;28550;51.228;4.528;2023-03-04T05:17:36;6.70;48.10
42905;DHT22;28550;51.228;4.528;2023-03-04T05:20:11;6.70;99.90
42905;DHT22;28550;51.228;4.528;2023-03-04T05:25:28;6.70;99.90
42905;DHT22;28550;51.228;4.528;2023-03-04T05:30:38;6.70;99.90
42905;DHT22;28550;51.228;4.528;2023-03-04T05:33:15;6.60;99.90
42905;DHT22;28550;51.228;4.528;2023-03-04T05:35:50;6.60;99.90
42905;DHT22;28550;51.228;4.528;2023-03-04T05:38:18;6.50;99.90
42905;DHT22;28550;51.228;4.528;2023-03-04T05:40:59;6.50;99.90
42905;DHT22;28550;51.228;4.528;2023-03-04T05:46:14;6.60;99.90
42905;DHT22;28550;51.228;4.528;2023-03-04T05:48:45;6.60;99.90
42905;DHT22;28550;51.228;4.528;2023-03-04T05:51:24;6.70;99.90
42905;DHT22;28550;51.228;4.528;2023-03-04T05:53:53;6.70;99.90
42905;DHT22;28550;51.228;4.528;2023-03-04T05:56:19;6.70;99.90
42905;DHT22;28550;51.228;4.528;2023-03-04T06:01:37;6.70;99.90
42905;DHT22;28550;51.228;4.528;2023-03-04T06:04:14;6.80;99.90
42905;DHT22;28550;51.228;4.528;2023-03-04T06:09:49;6.70;99.90
42905;DHT22;28550;51.228;4.528;2023-03-04T06:14:46;6.90;99.90
42905;DHT22;28550;51.228;4.528;2023-03-04T06:17:12;6.90;99.90
42905;DHT22;28550;51.228;4.528;2023-03-04T06:19:46;6.90;99.90
42905;DHT22;28550;51.228;4.528;2023-03-04T06:22:12;6.90;99.90
42905;DHT22;28550;51.228;4.528;2023-03-04T06:24:37;6.90;99.90
42905;DHT22;28550;51.228;4.528;2023-03-04T06:30:16;6.80;99.90
42905;DHT22;28550;51.228;4.528;2023-03-04T06:35:29;6.80;99.90
42905;DHT22;28550;51.228;4.528;2023-03-04T06:40:42;6.80;99.90
42905;DHT22;28550;51.228;4.528;2023-03-04T06:43:13;6.70;99.90
42905;DHT22;28550;51.228;4.528;2023-03-04T06:45:41;6.60;99.90
42905;DHT22;28550;51.228;4.528;2023-03-04T06:48:08;6.60;99.90
42905;DHT22;28550;51.228;4.528;2023-03-04T06:53:26;6.60;99.90
42905;DHT22;28550;51.228;4.528;2023-03-04T06:55:52;6.60;99.90
42905;DHT22;28550;51.228;4.528;2023-03-04T06:58:27;6.70;99.90
42905;DHT22;28550;51.228;4.528;2023-03-04T07:00:52;6.80;99.90
42905;DHT22;28550;51.228;4.528;2023-03-04T07:03:21;6.90;99.90
42905;DHT22;28550;51.228;4.528;2023-03-04T07:05:47;6.80;99.90
42905;DHT22;28550;51.228;4.528;2023-03-04T07:08:14;6.80;99.90
42905;DHT22;28550;51.228;4.528;2023-03-04T07:10:40;6.80;99.90
42905;DHT22;28550;51.228;4.528;2023-03-04T07:13:05;6.80;99.90
42905;DHT22;28550;51.228;4.528;2023-03-04T07:15:32;6.70;1.00
42905;DHT22;28550;51.228;4.528;2023-03-04T07:18:17;6.70;1.00
42905;DHT22;28550;51.228;4.528;2023-03-04T07:20:43;6.80;1.00
42905;DHT22;28550;51.228;4.528;2023-03-04T07:23:10;6.80;99.90
42905;DHT22;28550;51.228;4.528;2023-03-04T07:25:35;6.80;1.00
42905;DHT22;28550;51.228;4.528;2023-03-04T07:28:01;6.70;1.00
42905;DHT22;28550;51.228;4.528;2023-03-04T07:30:26;6.70;1.00
42905;DHT22;28550;51.228;4.528;2023-03-04T07:32:52;6.60;1.00
42905;DHT22;28550;51.228;4.528;2023-03-04T07:35:18;6.50;1.00
42905;DHT22;28550;51.228;4.528;2023-03-04T07:37:43;6.50;1.00
42905;DHT22;28550;51.228;4.528;2023-03-04T07:40:09;6.60;1.00
42905;DHT22;28550;51.228;4.528;2023-03-04T07:42:35;6.60;1.00
42905;DHT22;28550;51.228;4.528;2023-03-04T07:45:01;6.90;1.00
42905;DHT22;28550;51.228;4.528;2023-03-04T07:47:30;6.90;1.00
42905;DHT22;28550;51.228;4.528;2023-03-04T07:49:59;7.00;1.00
42905;DHT22;28550;51.228;4.528;2023-03-04T07:52:27;7.10;1.00
42905;DHT22;28550;51.228;4.528;2023-03-04T07:54:53;7.20;1.00
42905;DHT22;28550;51.228;4.528;2023-03-04T07:57:18;7.30;1.00
42905;DHT22;28550;51.228;4.528;2023-03-04T07:59:44;7.40;1.00
42905;DHT22;28550;51.228;4.528;2023-03-04T08:02:09;7.50;1.00
42905;DHT22;28550;51.228;4.528;2023-03-04T08:04:35;7.70;99.90
42905;DHT22;28550;51.228;4.528;2023-03-04T08:07:02;7.70;99.90
42905;DHT22;28550;51.228;4.528;2023-03-04T08:09:30;7.70;99.90
42905;DHT22;28550;51.228;4.528;2023-03-04T08:14:54;7.80;1.00
42905;DHT22;28550;51.228;4.528;2023-03-04T08:17:20;7.90;99.90
42905;DHT22;28550;51.228;4.528;2023-03-04T08:19:45;7.90;99.90
42905;DHT22;28550;51.228;4.528;2023-03-04T08:22:11;7.90;99.90
42905;DHT22;28550;51.228;4.528;2023-03-04T08:24:37;7.80;1.00
42905;DHT22;28550;51.228;4.528;2023-03-04T08:27:02;7.60;1.00
42905;DHT22;28550;51.228;4.528;2023-03-04T08:29:28;7.50;1.00
42905;DHT22;28550;51.228;4.528;2023-03-04T08:31:54;7.70;99.90
42905;DHT22;28550;51.228;4.528;2023-03-04T08:34:21;7.80;99.90
42905;DHT22;28550;51.228;4.528;2023-03-04T08:36:47;8.10;99.90
42905;DHT22;28550;51.228;4.528;2023-03-04T08:39:14;8.30;99.90
42905;DHT22;28550;51.228;4.528;2023-03-04T08:41:40;8.40;99.90
42905;DHT22;28550;51.228;4.528;2023-03-04T08:44:05;8.60;1.00
42905;DHT22;28550;51.228;4.528;2023-03-04T08:46:32;8.70;99.90
42905;DHT22;28550;51.228;4.528;2023-03-04T08:48:58;8.70;1.00
42905;DHT22;28550;51.228;4.528;2023-03-04T08:51:23;8.60;1.00
42905;DHT22;28550;51.228;4.528;2023-03-04T08:53:51;8.70;1.00
42905;DHT22;28550;51.228;4.528;2023-03-04T08:56:20;8.80;99.90
42905;DHT22;28550;51.228;4.528;2023-03-04T08:58:50;8.60;1.00
42905;DHT22;28550;51.228;4.528;2023-03-04T09:01:15;8.50;1.00
42905;DHT22;28550;51.228;4.528;2023-03-04T09:03:42;8.30;64.80
42905;DHT22;28550;51.228;4.528;2023-03-04T09:06:12;8.40;41.10
42905;DHT22;28550;51.228;4.528;2023-03-04T09:08:42;8.40;70.90
42905;DHT22;28550;51.228;4.528;2023-03-04T09:11:08;8.20;99.90
42905;DHT22;28550;51.228;4.528;2023-03-04T09:13:46;8.10;99.90
42905;DHT22;28550;51.228;4.528;2023-03-04T09:16:25;8.00;99.90
42905;DHT22;28550;51.228;4.528;2023-03-04T09:18:52;8.30;99.90
42905;DHT22;28550;51.228;4.528;2023-03-04T09:21:17;8.30;99.90
42905;DHT22;28550;51.228;4.528;2023-03-04T09:23:43;8.40;99.90
42905;DHT22;28550;51.228;4.528;2023-03-04T09:26:24;8.10;99.90
42905;DHT22;28550;51.228;4.528;2023-03-04T09:28:53;8.20;1.00
42905;DHT22;28550;51.228;4.528;2023-03-04T09:31:20;8.50;1.00
42905;DHT22;28550;51.228;4.528;2023-03-04T09:33:50;8.70;99.90
42905;DHT22;28550;51.228;4.528;2023-03-04T09:36:18;9.00;9.00
42905;DHT22;28550;51.228;4.528;2023-03-04T09:38:47;9.20;1.00
42905;DHT22;28550;51.228;4.528;2023-03-04T09:41:22;9.50;1.00
42905;DHT22;28550;51.228;4.528;2023-03-04T09:44:35;9.80;99.90
42905;DHT22;28550;51.228;4.528;2023-03-04T09:46:45;9.90;99.90
42905;DHT22;28550;51.228;4.528;2023-03-04T09:49:12;10.30;1.00
42905;DHT22;28550;51.228;4.528;2023-03-04T09:51:49;11.00;1.00
42905;DHT22;28550;51.228;4.528;2023-03-04T10:00:04;10.20;1.00
42905;DHT22;28550;51.228;4.528;2023-03-04T10:05:19;9.90;69.10
42905;DHT22;28550;51.228;4.528;2023-03-04T10:07:49;9.80;99.90
42905;DHT22;28550;51.228;4.528;2023-03-04T10:10:38;9.90;1.00
42905;DHT22;28550;51.228;4.528;2023-03-04T10:13:03;10.10;1.00
42905;DHT22;28550;51.228;4.528;2023-03-04T10:18:58;10.80;1.00
42905;DHT22;28550;51.228;4.528;2023-03-04T10:21:45;11.20;99.90
42905;DHT22;28550;51.228;4.528;2023-03-04T10:24:18;11.50;1.00
42905;DHT22;28550;51.228;4.528;2023-03-04T10:26:53;11.50;1.00
42905;DHT22;28550;51.228;4.528;2023-03-04T10:29:20;11.70;1.00
42905;DHT22;28550;51.228;4.528;2023-03-04T10:31:47;12.10;1.00
42905;DHT22;28550;51.228;4.528;2023-03-04T10:34:14;12.50;99.90
42905;DHT22;28550;51.228;4.528;2023-03-04T10:36:44;12.50;1.00
42905;DHT22;28550;51.228;4.528;2023-03-04T10:39:16;12.00;1.00
42905;DHT22;28550;51.228;4.528;2023-03-04T10:44:32;11.00;99.90
42905;DHT22;28550;51.228;4.528;2023-03-04T10:47:00;10.50;1.00
42905;DHT22;28550;51.228;4.528;2023-03-04T10:49:27;10.30;1.00
42905;DHT22;28550;51.228;4.528;2023-03-04T10:56:55;10.20;99.90
42905;DHT22;28550;51.228;4.528;2023-03-04T11:02:01;10.80;1.00
42905;DHT22;28550;51.228;4.528;2023-03-04T11:04:31;11.00;99.90
42905;DHT22;28550;51.228;4.528;2023-03-04T11:06:57;11.00;99.90
42905;DHT22;28550;51.228;4.528;2023-03-04T11:09:24;10.80;99.90
42905;DHT22;28550;51.228;4.528;2023-03-04T11:11:54;10.80;99.90
42905;DHT22;28550;51.228;4.528;2023-03-04T11:14:38;10.60;99.90
42905;DHT22;28550;51.228;4.528;2023-03-04T11:17:19;10.60;99.90
42905;DHT22;28550;51.228;4.528;2023-03-04T11:20:10;10.40;99.90
42905;DHT22;28550;51.228;4.528;2023-03-04T11:22:39;10.40;1.00
42905;DHT22;28550;51.228;4.528;2023-03-04T11:28:13;10.10;12.10
42905;DHT22;28550;51.228;4.528;2023-03-04T11:30:42;10.20;1.00
42905;DHT22;28550;51.228;4.528;2023-03-04T11:33:16;10.00;99.90
42905;DHT22;28550;51.228;4.528;2023-03-04T11:35:55;10.30;57.40
42905;DHT22;28550;51.228;4.528;2023-03-04T11:39:11;10.90;1.00
42905;DHT22;28550;51.228;4.528;2023-03-04T11:41:15;10.90;99.90
42905;DHT22;28550;51.228;4.528;2023-03-04T11:43:55;11.40;59.00
42905;DHT22;28550;51.228;4.528;2023-03-04T11:57:19;10.90;99.90
42905;DHT22;28550;51.228;4.528;2023-03-04T11:59:57;10.60;99.90
42905;DHT22;28550;51.228;4.528;2023-03-04T12:02:31;10.30;99.90
42905;DHT22;28550;51.228;4.528;2023-03-04T12:21:12;11.50;1.00
42905;DHT22;28550;51.228;4.528;2023-03-04T12:23:54;11.40;1.00
42905;DHT22;28550;51.228;4.528;2023-03-04T12:26:41;11.10;54.70
42905;DHT22;28550;51.228;4.528;2023-03-04T12:29:25;10.70;99.90
42905;DHT22;28550;51.228;4.528;2023-03-04T12:55:59;9.60;1.00
42905;DHT22;28550;51.228;4.528;2023-03-04T12:58:31;9.50;1.00
42905;DHT22;28550;51.228;4.528;2023-03-04T13:04:19;9.40;99.90
42905;DHT22;28550;51.228;4.528;2023-03-04T13:07:07;9.20;1.00
42905;DHT22;28550;51.228;4.528;2023-03-04T13:09:57;9.20;1.00
42905;DHT22;28550;51.228;4.528;2023-03-04T13:15:30;9.00;1.00
42905;DHT22;28550;51.228;4.528;2023-03-04T13:20:44;8.90;1.00
42905;DHT22;28550;51.228;4.528;2023-03-04T13:28:27;9.50;1.00
42905;DHT22;28550;51.228;4.528;2023-03-04T13:35:59;10.70;99.90
42905;DHT22;28550;51.228;4.528;2023-03-04T13:38:37;11.10;99.90
42905;DHT22;28550;51.228;4.528;2023-03-04T13:41:20;11.40;1.00
42905;DHT22;28550;51.228;4.528;2023-03-04T13:44:01;11.60;1.00
42905;DHT22;28550;51.228;4.528;2023-03-04T13:46:43;11.60;99.90
42905;DHT22;28550;51.228;4.528;2023-03-04T13:51:54;11.50;99.90
42905;DHT22;28550;51.228;4.528;2023-03-04T13:54:26;11.30;99.90
42905;DHT22;28550;51.228;4.528;2023-03-04T14:02:33;10.80;1.00
42905;DHT22;28550;51.228;4.528;2023-03-04T14:04:59;10.70;99.90
42905;DHT22;28550;51.228;4.528;2023-03-04T14:07:34;10.50;99.90
42905;DHT22;28550;51.228;4.528;2023-03-04T14:10:05;10.60;99.90
42905;DHT22;28550;51.228;4.528;2023-03-04T14:12:38;10.60;99.90
42905;DHT22;28550;51.228;4.528;2023-03-04T14:17:37;10.60;1.00
42905;DHT22;28550;51.228;4.528;2023-03-04T14:20:04;10.40;8.30
42905;DHT22;28550;51.228;4.528;2023-03-04T14:22:40;10.40;1.00
42905;DHT22;28550;51.228;4.528;2023-03-04T14:25:18;10.40;99.90
42905;DHT22;28550;51.228;4.528;2023-03-04T14:27:46;10.40;22.50
42905;DHT22;28550;51.228;4.528;2023-03-04T14:33:07;10.60;1.00
42905;DHT22;28550;51.228;4.528;2023-03-04T14:35:33;10.70;1.00
42905;DHT22;28550;51.228;4.528;2023-03-04T14:38:06;10.70;1.00
42905;DHT22;28550;51.228;4.528;2023-03-04T14:40:39;10.80;1.00
42905;DHT22;28550;51.228;4.528;2023-03-04T14:43:20;10.80;1.00
42905;DHT22;28550;51.228;4.528;2023-03-04T14:45:48;10.90;1.00
42905;DHT22;28550;51.228;4.528;2023-03-04T14:48:18;10.80;1.00
42905;DHT22;28550;51.228;4.528;2023-03-04T14:50:56;10.80;1.00
42905;DHT22;28550;51.228;4.528;2023-03-04T14:53:26;10.70;1.00
42905;DHT22;28550;51.228;4.528;2023-03-04T14:55:57;10.40;99.90
42905;DHT22;28550;51.228;4.528;2023-03-04T15:01:32;10.00;99.90
42905;DHT22;28550;51.228;4.528;2023-03-04T15:04:08;9.80;99.90
42905;DHT22;28550;51.228;4.528;2023-03-04T15:06:47;9.70;99.90
42905;DHT22;28550;51.228;4.528;2023-03-04T15:09:25;9.60;1.00
42905;DHT22;28550;51.228;4.528;2023-03-04T15:11:57;9.50;1.00
42905;DHT22;28550;51.228;4.528;2023-03-04T15:20:00;9.60;1.00
42905;DHT22;28550;51.228;4.528;2023-03-04T15:22:27;9.60;1.00
42905;DHT22;28550;51.228;4.528;2023-03-04T15:24:53;9.70;1.00
42905;DHT22;28550;51.228;4.528;2023-03-04T15:27:25;9.50;1.00
42905;DHT22;28550;51.228;4.528;2023-03-04T15:29:51;9.60;1.00
42905;DHT22;28550;51.228;4.528;2023-03-04T15:32:24;9.60;1.00
42905;DHT22;28550;51.228;4.528;2023-03-04T15:34:51;9.60;1.00
42905;DHT22;28550;51.228;4.528;2023-03-04T15:37:20;9.60;1.00
42905;DHT22;28550;51.228;4.528;2023-03-04T15:40:26;9.60;1.00
42905;DHT22;28550;51.228;4.528;2023-03-04T15:42:53;9.60;1.00
42905;DHT22;28550;51.228;4.528;2023-03-04T15:45:30;9.60;1.00
42905;DHT22;28550;51.228;4.528;2023-03-04T15:47:57;9.50;1.00
42905;DHT22;28550;51.228;4.528;2023-03-04T15:50:30;9.40;1.00
42905;DHT22;28550;51.228;4.528;2023-03-04T15:52:59;9.40;1.00
42905;DHT22;28550;51.228;4.528;2023-03-04T15:55:26;9.50;1.00
42905;DHT22;28550;51.228;4.528;2023-03-04T15:57:55;9.50;1.00
42905;DHT22;28550;51.228;4.528;2023-03-04T16:00:21;9.60;1.00
42905;DHT22;28550;51.228;4.528;2023-03-04T16:02:48;9.70;1.00
42905;DHT22;28550;51.228;4.528;2023-03-04T16:05:14;9.60;99.90
42905;DHT22;28550;51.228;4.528;2023-03-04T16:07:49;9.70;99.90
42905;DHT22;28550;51.228;4.528;2023-03-04T16:12:42;9.80;99.90
42905;DHT22;28550;51.228;4.528;2023-03-04T16:15:11;9.90;99.90
42905;DHT22;28550;51.228;4.528;2023-03-04T16:17:58;9.80;99.90
42905;DHT22;28550;51.228;4.528;2023-03-04T16:20:27;9.70;99.90
42905;DHT22;28550;51.228;4.528;2023-03-04T16:22:57;9.70;99.90
42905;DHT22;28550;51.228;4.528;2023-03-04T16:25:23;9.50;1.00
42905;DHT22;28550;51.228;4.528;2023-03-04T16:27:50;9.60;1.00
42905;DHT22;28550;51.228;4.528;2023-03-04T16:30:22;9.50;1.00
42905;DHT22;28550;51.228;4.528;2023-03-04T16:32:48;9.60;1.00
42905;DHT22;28550;51.228;4.528;2023-03-04T16:35:14;9.60;1.00
42905;DHT22;28550;51.228;4.528;2023-03-04T16:37:46;9.40;1.00
42905;DHT22;28550;51.228;4.528;2023-03-04T16:40:15;9.10;1.00
42905;DHT22;28550;51.228;4.528;2023-03-04T16:42:42;9.10;1.00
42905;DHT22;28550;51.228;4.528;2023-03-04T16:45:15;9.00;1.00
42905;DHT22;28550;51.228;4.528;2023-03-04T16:47:44;9.00;1.00
42905;DHT22;28550;51.228;4.528;2023-03-04T16:50:16;8.90;1.00
42905;DHT22;28550;51.228;4.528;2023-03-04T16:52:46;8.90;1.00
42905;DHT22;28550;51.228;4.528;2023-03-04T16:55:21;8.90;1.00
42905;DHT22;28550;51.228;4.528;2023-03-04T16:57:54;9.00;1.00
42905;DHT22;28550;51.228;4.528;2023-03-04T17:00:26;9.10;1.00
42905;DHT22;28550;51.228;4.528;2023-03-04T17:02:53;9.10;1.00
42905;DHT22;28550;51.228;4.528;2023-03-04T17:05:20;9.10;1.00
42905;DHT22;28550;51.228;4.528;2023-03-04T17:07:46;9.00;1.00
42905;DHT22;28550;51.228;4.528;2023-03-04T17:10:14;8.80;1.00
42905;DHT22;28550;51.228;4.528;2023-03-04T17:12:40;8.70;1.00
42905;DHT22;28550;51.228;4.528;2023-03-04T17:15:06;8.70;1.00
42905;DHT22;28550;51.228;4.528;2023-03-04T17:17:32;8.60;1.00
42905;DHT22;28550;51.228;4.528;2023-03-04T17:19:58;8.50;1.00
42905;DHT22;28550;51.228;4.528;2023-03-04T17:22:33;8.60;1.00
42905;DHT22;28550;51.228;4.528;2023-03-04T17:24:58;8.60;1.00
42905;DHT22;28550;51.228;4.528;2023-03-04T17:27:24;8.60;1.00
42905;DHT22;28550;51.228;4.528;2023-03-04T17:29:53;8.40;1.00
42905;DHT22;28550;51.228;4.528;2023-03-04T17:32:20;8.30;1.00
42905;DHT22;28550;51.228;4.528;2023-03-04T17:34:46;8.30;1.00
42905;DHT22;28550;51.228;4.528;2023-03-04T17:37:14;8.40;1.00
42905;DHT22;28550;51.228;4.528;2023-03-04T17:40:03;8.20;1.00
42905;DHT22;28550;51.228;4.528;2023-03-04T17:45:34;8.30;1.00
42905;DHT22;28550;51.228;4.528;2023-03-04T17:48:02;8.10;1.00
42905;DHT22;28550;51.228;4.528;2023-03-04T17:50:27;8.10;1.00
42905;DHT22;28550;51.228;4.528;2023-03-04T17:52:53;8.10;1.00
42905;DHT22;28550;51.228;4.528;2023-03-04T17:55:19;8.00;1.00
42905;DHT22;28550;51.228;4.528;2023-03-04T17:57:45;8.00;1.00
42905;DHT22;28550;51.228;4.528;2023-03-04T18:00:12;8.00;1.00
42905;DHT22;28550;51.228;4.528;2023-03-04T18:02:39;8.00;1.00
42905;DHT22;28550;51.228;4.528;2023-03-04T18:08:08;8.00;1.00
42905;DHT22;28550;51.228;4.528;2023-03-04T18:13:12;7.90;1.00
42905;DHT22;28550;51.228;4.528;2023-03-04T18:18:42;7.80;1.00
42905;DHT22;28550;51.228;4.528;2023-03-04T18:21:07;7.80;1.00
42905;DHT22;28550;51.228;4.528;2023-03-04T18:23:33;7.80;1.00
42905;DHT22;28550;51.228;4.528;2023-03-04T18:26:00;7.80;1.00
42905;DHT22;28550;51.228;4.528;2023-03-04T18:28:26;7.80;1.00
42905;DHT22;28550;51.228;4.528;2023-03-04T18:30:53;7.80;1.00
42905;DHT22;28550;51.228;4.528;2023-03-04T18:36:30;7.90;99.90
42905;DHT22;28550;51.228;4.528;2023-03-04T18:39:18;7.80;99.90
42905;DHT22;28550;51.228;4.528;2023-03-04T18:48:29;7.80;99.90
42905;DHT22;28550;51.228;4.528;2023-03-04T18:54:01;7.50;1.00
42905;DHT22;28550;51.228;4.528;2023-03-04T18:56:31;7.60;99.90
42905;DHT22;28550;51.228;4.528;2023-03-04T18:59:03;7.70;99.90
42905;DHT22;28550;51.228;4.528;2023-03-04T19:01:31;7.70;99.90
42905;DHT22;28550;51.228;4.528;2023-03-04T19:03:56;7.60;99.90
42905;DHT22;28550;51.228;4.528;2023-03-04T19:06:24;7.80;99.90
42905;DHT22;28550;51.228;4.528;2023-03-04T19:08:52;7.90;99.90
42905;DHT22;28550;51.228;4.528;2023-03-04T19:11:20;7.90;99.70
42905;DHT22;28550;51.228;4.528;2023-03-04T19:13:49;7.90;82.90
42905;DHT22;28550;51.228;4.528;2023-03-04T19:16:16;7.80;99.90
42905;DHT22;28550;51.228;4.528;2023-03-04T19:18:41;7.80;99.90
42905;DHT22;28550;51.228;4.528;2023-03-04T19:21:11;7.70;99.90
42905;DHT22;28550;51.228;4.528;2023-03-04T19:23:38;7.60;1.00
42905;DHT22;28550;51.228;4.528;2023-03-04T19:26:05;7.60;1.00
42905;DHT22;28550;51.228;4.528;2023-03-04T19:28:31;7.40;1.00
42905;DHT22;28550;51.228;4.528;2023-03-04T19:31:03;7.50;1.00
42905;DHT22;28550;51.228;4.528;2023-03-04T19:33:31;7.50;1.00
42905;DHT22;28550;51.228;4.528;2023-03-04T19:36:00;7.50;1.00
42905;DHT22;28550;51.228;4.528;2023-03-04T19:38:25;7.40;1.00